Time;durP1;ratioP1;P1;durP2;ratioP2;P2;SDS_P1;SDS_P2;PMS_P1;PMS_P2;Temp;Humidity;BMP_temperature;BMP_pressure;BME280_temperature;BME280_humidity;BME280_pressure;Samples;Min_cycle;Max_cycle;Signal;HPM_P1;HPM_P2
2022/04/24 00:00:10;;;;;;;61.67;30.88;;;9.40;99.90;;;;;;5074469;28;20028;-56
2022/04/24 00:02:36;;;;;;;63.15;30.67;;;9.40;99.90;;;;;;5063910;28;20029;-57
2022/04/24 00:05:04;;;;;;;65.60;30.63;;;9.40;99.90;;;;;;5057906;28;20087;-57
2022/04/24 00:07:32;;;;;;;66.28;31.80;;;9.40;99.90;;;;;;5057638;28;20033;-57
2022/04/24 00:09:58;;;;;;;81.50;34.20;;;9.30;99.90;;;;;;5057889;28;20119;-57
2022/04/24 00:12:24;;;;;;;89.13;36.88;;;9.30;99.90;;;;;;5057496;28;20085;-56
2022/04/24 00:14:50;;;;;;;88.07;37.35;;;9.30;99.90;;;;;;5057792;28;20025;-57
2022/04/24 00:17:16;;;;;;;91.28;35.95;;;9.20;99.90;;;;;;5057827;28;20036;-56
2022/04/24 00:19:43;;;;;;;76.82;33.38;;;9.30;99.90;;;;;;5057800;28;20546;-56
2022/04/24 00:22:09;;;;;;;71.00;31.42;;;9.30;99.90;;;;;;5077424;28;20552;-56
2022/04/24 00:24:35;;;;;;;84.35;34.15;;;9.20;99.90;;;;;;5077553;28;20038;-57
2022/04/24 00:27:01;;;;;;;75.82;31.95;;;9.30;99.90;;;;;;5077329;28;20032;-56
2022/04/24 00:29:27;;;;;;;83.15;34.33;;;9.30;99.90;;;;;;5077426;28;20119;-56
2022/04/24 00:31:53;;;;;;;58.92;28.65;;;9.20;99.90;;;;;;5077578;28;20459;-57
2022/04/24 00:34:19;;;;;;;69.95;29.83;;;9.20;99.90;;;;;;5077499;28;20462;-57
2022/04/24 00:36:45;;;;;;;62.97;27.75;;;9.20;99.90;;;;;;5077489;28;20033;-56
2022/04/24 00:39:12;;;;;;;73.97;31.55;;;9.20;99.90;;;;;;5077365;28;20055;-56
2022/04/24 00:41:48;;;;;;;73.93;31.20;;;9.20;99.90;;;;;;5077055;28;20032;-57
2022/04/24 00:44:15;;;;;;;60.42;27.05;;;9.30;99.90;;;;;;5077260;28;20037;-57
2022/04/24 00:47:01;;;;;;;56.67;26.60;;;9.20;99.90;;;;;;5077172;28;20078;-57
2022/04/24 00:49:29;;;;;;;68.38;28.90;;;9.20;99.90;;;;;;5076998;28;20029;-56
2022/04/24 00:51:55;;;;;;;69.47;30.02;;;9.20;99.90;;;;;;5077076;28;20241;-56
2022/04/24 00:54:21;;;;;;;56.70;26.80;;;9.20;99.90;;;;;;5077025;28;20409;-56
2022/04/24 00:56:47;;;;;;;56.95;26.95;;;9.20;99.90;;;;;;5077249;28;20028;-57
2022/04/24 00:59:14;;;;;;;63.60;27.95;;;9.20;99.90;;;;;;5076988;28;20055;-57
2022/04/24 01:01:41;;;;;;;69.13;29.48;;;9.20;99.90;;;;;;5070468;28;20366;-57
2022/04/24 01:04:09;;;;;;;56.58;26.05;;;9.20;99.90;;;;;;5056796;28;20037;-56
2022/04/24 01:06:41;;;;;;;52.42;23.98;;;9.20;99.90;;;;;;5056822;28;20086;-56
2022/04/24 01:09:19;;;;;;;45.33;21.52;;;9.20;99.90;;;;;;5056859;28;20025;-57
2022/04/24 01:11:51;;;;;;;46.20;22.20;;;9.20;99.90;;;;;;5062466;28;20029;-56
2022/04/24 01:14:19;;;;;;;42.50;22.15;;;9.20;99.90;;;;;;5076635;28;20040;-56
2022/04/24 01:16:46;;;;;;;47.63;22.75;;;9.20;99.90;;;;;;5076561;28;20199;-56
2022/04/24 01:19:12;;;;;;;45.40;22.45;;;9.10;99.90;;;;;;5076541;28;20037;-56
2022/04/24 01:21:41;;;;;;;43.60;21.48;;;9.10;99.90;;;;;;5091950;28;20076;-56
2022/04/24 01:24:08;;;;;;;36.83;19.15;;;9.10;99.90;;;;;;5096673;28;20020;-56
2022/04/24 01:26:35;;;;;;;36.63;18.77;;;9.10;99.90;;;;;;5096500;28;20059;-57
2022/04/24 01:29:04;;;;;;;38.75;18.92;;;9.20;99.90;;;;;;5096603;28;20032;-56
2022/04/24 01:31:31;;;;;;;35.95;19.50;;;9.10;99.90;;;;;;5096440;28;20020;-58
2022/04/24 01:33:57;;;;;;;38.60;21.05;;;9.10;99.90;;;;;;5096467;28;20032;-57
2022/04/24 01:36:23;;;;;;;44.50;21.52;;;9.10;99.90;;;;;;5096283;28;20381;-56
2022/04/24 01:38:49;;;;;;;36.97;20.17;;;9.10;99.90;;;;;;5096468;28;20031;-56
2022/04/24 01:41:15;;;;;;;38.05;19.67;;;9.10;99.90;;;;;;5096384;28;20028;-56
2022/04/24 01:43:42;;;;;;;33.33;19.33;;;9.10;99.90;;;;;;5096366;28;20472;-57
2022/04/24 01:46:09;;;;;;;37.95;22.02;;;9.10;99.90;;;;;;5096254;28;20039;-56
2022/04/24 01:48:36;;;;;;;40.63;21.40;;;9.00;99.90;;;;;;5096278;28;20079;-57
2022/04/24 01:51:03;;;;;;;32.17;18.70;;;8.90;99.90;;;;;;5096394;28;20039;-56
2022/04/24 01:53:29;;;;;;;38.33;19.52;;;8.90;99.90;;;;;;5096038;28;20051;-57
2022/04/24 01:55:57;;;;;;;36.40;20.33;;;9.00;99.90;;;;;;5096090;28;20028;-56
2022/04/24 01:58:24;;;;;;;35.58;18.38;;;8.90;99.90;;;;;;5096025;28;20028;-57
2022/04/24 02:00:51;;;;;;;34.95;18.73;;;8.90;99.90;;;;;;5095789;28;20035;-57
2022/04/24 02:03:18;;;;;;;42.08;19.55;;;8.90;99.90;;;;;;5076103;28;20528;-56
2022/04/24 02:05:44;;;;;;;36.08;18.25;;;8.90;99.90;;;;;;5075667;28;20103;-56
2022/04/24 02:08:11;;;;;;;38.17;18.35;;;8.80;99.90;;;;;;5075731;28;20518;-56
2022/04/24 02:10:37;;;;;;;32.08;18.10;;;8.70;99.90;;;;;;5075678;28;20028;-56
2022/04/24 02:13:03;;;;;;;34.03;17.45;;;8.70;99.90;;;;;;5075282;28;20066;-56
2022/04/24 02:15:29;;;;;;;33.33;18.90;;;8.80;99.90;;;;;;5095610;28;20020;-57
2022/04/24 02:17:55;;;;;;;35.83;19.17;;;8.80;99.90;;;;;;5095755;28;20035;-56
2022/04/24 02:20:22;;;;;;;39.28;18.63;;;8.80;99.90;;;;;;5095414;28;20051;-57
2022/04/24 02:22:49;;;;;;;37.90;18.50;;;8.80;99.90;;;;;;5095440;28;20066;-57
2022/04/24 02:25:15;;;;;;;34.33;17.27;;;8.90;99.90;;;;;;5095411;28;20028;-56
2022/04/24 02:27:42;;;;;;;33.63;15.70;;;8.80;99.90;;;;;;5095515;28;20043;-56
2022/04/24 02:30:08;;;;;;;29.80;15.95;;;8.90;99.90;;;;;;5095435;28;20110;-56
2022/04/24 02:32:34;;;;;;;30.27;16.42;;;8.80;99.90;;;;;;5095546;28;20020;-56
2022/04/24 02:35:00;;;;;;;34.60;17.25;;;8.80;99.90;;;;;;5095289;28;20531;-56
2022/04/24 02:37:27;;;;;;;30.13;16.02;;;8.80;99.90;;;;;;5095470;28;20032;-56
2022/04/24 02:39:53;;;;;;;43.83;20.65;;;8.90;99.90;;;;;;5095298;28;20038;-56
2022/04/24 02:42:19;;;;;;;43.47;21.83;;;8.80;99.90;;;;;;5095063;28;20411;-56
2022/04/24 02:44:46;;;;;;;45.17;22.63;;;8.80;99.90;;;;;;5095318;28;20036;-56
2022/04/24 02:47:11;;;;;;;49.33;20.60;;;8.80;99.90;;;;;;5095050;28;20499;-56
2022/04/24 02:49:37;;;;;;;41.97;19.77;;;8.80;99.90;;;;;;5094966;28;20028;-56
2022/04/24 02:52:04;;;;;;;39.50;18.55;;;8.80;99.90;;;;;;5095063;28;20111;-56
2022/04/24 02:54:30;;;;;;;38.38;17.70;;;8.80;99.90;;;;;;5095022;28;20600;-57
2022/04/24 02:56:56;;;;;;;31.98;16.42;;;8.80;99.90;;;;;;5095098;28;20035;-56
2022/04/24 02:59:22;;;;;;;30.42;15.13;;;8.90;99.90;;;;;;5095060;28;20503;-56
2022/04/24 03:01:49;;;;;;;31.27;14.30;;;8.90;99.90;;;;;;5087116;28;20028;-57
2022/04/24 03:04:15;;;;;;;31.13;13.82;;;8.90;99.90;;;;;;5074654;28;20040;-56
2022/04/24 03:06:41;;;;;;;25.25;14.10;;;8.80;99.90;;;;;;5074504;28;20032;-56
2022/04/24 03:09:07;;;;;;;31.45;15.88;;;8.80;99.90;;;;;;5074578;28;20108;-57
2022/04/24 03:11:33;;;;;;;30.35;14.60;;;8.80;99.90;;;;;;5074331;28;20382;-57
2022/04/24 03:13:59;;;;;;;25.92;13.85;;;8.80;99.90;;;;;;5074435;28;20083;-57
2022/04/24 03:16:25;;;;;;;30.40;15.23;;;8.80;99.90;;;;;;5074510;28;20360;-57
2022/04/24 03:18:51;;;;;;;25.55;13.82;;;8.80;99.90;;;;;;5075072;28;20099;-56
2022/04/24 03:21:17;;;;;;;27.15;14.90;;;8.80;99.90;;;;;;5094420;28;20131;-56
2022/04/24 03:23:43;;;;;;;26.60;13.80;;;8.90;99.90;;;;;;5094425;28;20063;-56
2022/04/24 03:26:13;;;;;;;28.55;13.80;;;8.80;99.90;;;;;;5094369;28;20478;-56
2022/04/24 03:28:40;;;;;;;25.35;13.32;;;8.90;99.90;;;;;;5094637;28;20024;-56
2022/04/24 03:31:07;;;;;;;20.20;11.63;;;8.90;99.90;;;;;;5094640;28;20028;-56
2022/04/24 03:33:33;;;;;;;23.85;11.98;;;8.90;99.90;;;;;;5094647;28;20532;-57
2022/04/24 03:35:59;;;;;;;25.70;12.40;;;9.00;99.90;;;;;;5098532;28;20150;-56
2022/04/24 03:38:24;;;;;;;27.67;12.23;;;8.90;99.90;;;;;;5101291;28;20048;-57
2022/04/24 03:40:51;;;;;;;23.63;11.82;;;8.90;99.90;;;;;;5101158;28;20016;-56
2022/04/24 03:43:16;;;;;;;21.90;10.73;;;8.90;99.90;;;;;;5101257;28;20039;-56
2022/04/24 03:45:42;;;;;;;22.45;10.88;;;8.90;99.90;;;;;;5101066;28;20036;-57
2022/04/24 03:48:08;;;;;;;24.25;13.60;;;9.00;99.90;;;;;;5101020;28;20034;-56
2022/04/24 03:50:34;;;;;;;21.52;11.48;;;8.90;99.90;;;;;;5101165;28;20035;-57
2022/04/24 03:53:00;;;;;;;23.08;13.25;;;9.00;99.90;;;;;;5100956;28;20028;-56
2022/04/24 03:55:29;;;;;;;26.15;12.93;;;9.00;99.90;;;;;;5101028;28;20027;-56
2022/04/24 03:57:55;;;;;;;17.70;9.85;;;9.00;99.90;;;;;;5101078;28;20122;-56
2022/04/24 04:00:21;;;;;;;24.10;11.13;;;9.10;99.90;;;;;;5100857;28;20157;-57
2022/04/24 04:02:48;;;;;;;23.92;10.75;;;9.00;99.90;;;;;;5085371;28;20039;-56
2022/04/24 04:05:16;;;;;;;18.92;9.93;;;9.10;99.90;;;;;;5080871;28;20036;-57
2022/04/24 04:07:43;;;;;;;18.95;8.65;;;9.10;99.90;;;;;;5080398;28;20044;-57
2022/04/24 04:10:09;;;;;;;24.50;10.68;;;9.20;99.90;;;;;;5080604;28;20496;-56
2022/04/24 04:12:35;;;;;;;19.63;9.38;;;9.20;99.90;;;;;;5080572;28;20016;-57
2022/04/24 04:15:06;;;;;;;17.70;9.75;;;9.20;99.90;;;;;;5080441;28;20023;-56
2022/04/24 04:17:32;;;;;;;21.38;10.18;;;9.30;99.90;;;;;;5100837;28;20024;-57
2022/04/24 04:19:59;;;;;;;20.60;9.77;;;9.20;99.90;;;;;;5100665;28;20353;-57
2022/04/24 04:22:25;;;;;;;22.90;9.98;;;9.20;99.90;;;;;;5100728;28;20497;-56
2022/04/24 04:24:52;;;;;;;18.23;11.15;;;9.20;99.90;;;;;;5100785;28;20054;-56
2022/04/24 04:27:19;;;;;;;20.48;9.23;;;9.30;99.90;;;;;;5100744;28;20070;-56
2022/04/24 04:29:45;;;;;;;24.25;10.52;;;9.20;99.90;;;;;;5100690;28;20089;-56
2022/04/24 04:32:11;;;;;;;18.10;9.55;;;9.30;99.90;;;;;;5100988;28;20035;-57
2022/04/24 04:34:37;;;;;;;20.20;10.52;;;9.30;99.90;;;;;;5100787;28;20028;-57
2022/04/24 04:37:03;;;;;;;22.50;10.75;;;9.30;99.90;;;;;;5100492;28;20128;-57
2022/04/24 04:39:29;;;;;;;16.77;9.63;;;9.40;99.90;;;;;;5100733;28;20020;-56
2022/04/24 04:41:55;;;;;;;27.60;10.70;;;9.40;99.90;;;;;;5100579;28;20032;-57
2022/04/24 04:44:21;;;;;;;17.83;10.20;;;9.40;99.90;;;;;;5100696;28;20034;-56
2022/04/24 04:46:47;;;;;;;18.35;10.02;;;9.50;99.90;;;;;;5099271;28;20081;-56
2022/04/24 04:49:13;;;;;;;20.63;10.60;;;9.50;99.90;;;;;;5097334;28;20062;-56
2022/04/24 04:51:39;;;;;;;23.05;10.02;;;9.50;99.90;;;;;;5097297;28;20075;-57
2022/04/24 04:54:05;;;;;;;20.65;10.00;;;9.60;99.90;;;;;;5097461;28;20028;-57
2022/04/24 04:56:31;;;;;;;24.70;9.60;;;9.60;99.90;;;;;;5097265;28;20032;-57
2022/04/24 04:58:57;;;;;;;20.33;9.80;;;9.60;99.90;;;;;;5097137;28;20035;-56
2022/04/24 05:01:23;;;;;;;19.75;9.25;;;9.70;99.90;;;;;;5093314;28;20031;-56
2022/04/24 05:03:49;;;;;;;17.73;9.07;;;9.70;99.90;;;;;;5076896;28;20035;-57
2022/04/24 05:06:16;;;;;;;15.85;8.40;;;9.80;99.90;;;;;;5076630;28;20474;-56
2022/04/24 05:08:42;;;;;;;17.60;8.35;;;9.80;99.90;;;;;;5076798;28;20037;-56
2022/04/24 05:11:08;;;;;;;19.77;8.77;;;9.80;99.90;;;;;;5076820;28;20025;-56
2022/04/24 05:13:34;;;;;;;20.05;9.38;;;9.80;99.90;;;;;;5076726;28;20030;-57
2022/04/24 05:16:00;;;;;;;17.52;9.80;;;9.90;99.90;;;;;;5076718;28;20029;-57
2022/04/24 05:18:26;;;;;;;18.90;10.90;;;10.00;99.90;;;;;;5076657;28;20024;-56
2022/04/24 05:20:52;;;;;;;20.38;10.77;;;10.00;99.90;;;;;;5085314;28;20055;-57
2022/04/24 05:23:18;;;;;;;20.85;10.73;;;10.10;99.90;;;;;;5096932;28;20036;-56
2022/04/24 05:25:44;;;;;;;21.45;10.35;;;10.00;99.90;;;;;;5096543;28;20028;-56
2022/04/24 05:28:10;;;;;;;20.83;10.93;;;10.10;99.90;;;;;;5096860;28;20430;-56
2022/04/24 05:30:36;;;;;;;21.60;11.82;;;10.10;99.90;;;;;;5096792;28;20024;-56
2022/04/24 05:33:02;;;;;;;22.15;12.23;;;10.10;99.90;;;;;;5096662;28;20420;-57
2022/04/24 05:35:29;;;;;;;26.63;15.52;;;10.10;99.90;;;;;;5096501;28;20132;-56
2022/04/24 05:37:55;;;;;;;29.55;16.45;;;10.20;99.90;;;;;;5096439;28;20036;-56
2022/04/24 05:40:21;;;;;;;27.85;14.10;;;10.20;99.90;;;;;;5096411;28;20073;-56
2022/04/24 05:42:50;;;;;;;29.77;14.65;;;10.30;99.90;;;;;;5096409;28;20478;-57
2022/04/24 05:45:18;;;;;;;56.60;24.33;;;10.30;99.90;;;;;;5096374;28;20024;-56
2022/04/24 05:47:46;;;;;;;137.82;55.03;;;10.30;99.90;;;;;;5096017;28;20478;-57
2022/04/24 05:50:12;;;;;;;129.23;53.97;;;10.40;99.90;;;;;;5096211;28;20035;-57
2022/04/24 05:52:39;;;;;;;63.22;29.45;;;10.50;99.90;;;;;;5096248;28;20036;-57
2022/04/24 05:55:06;;;;;;;43.17;21.15;;;10.50;99.90;;;;;;5096162;28;20115;-56
2022/04/24 05:57:32;;;;;;;34.63;17.27;;;10.50;99.90;;;;;;5095926;28;20028;-57
2022/04/24 05:59:58;;;;;;;29.23;13.07;;;10.50;99.90;;;;;;5095601;28;20081;-56
2022/04/24 06:02:24;;;;;;;30.45;17.67;;;10.60;99.90;;;;;;5083530;28;20029;-56
2022/04/24 06:04:50;;;;;;;40.15;18.42;;;10.60;99.90;;;;;;5075934;28;20039;-57
2022/04/24 06:07:16;;;;;;;36.28;18.77;;;10.70;99.90;;;;;;5075613;28;20024;-57
2022/04/24 06:09:42;;;;;;;39.65;22.90;;;10.80;99.90;;;;;;5075496;28;20021;-56
2022/04/24 06:12:09;;;;;;;41.28;22.63;;;10.80;99.90;;;;;;5075501;28;20425;-56
2022/04/24 06:14:35;;;;;;;38.85;25.58;;;10.90;99.90;;;;;;5075473;28;20035;-57
2022/04/24 06:17:01;;;;;;;41.55;27.75;;;10.90;99.90;;;;;;5075396;28;20028;-56
2022/04/24 06:19:27;;;;;;;39.67;25.95;;;10.90;99.90;;;;;;5075420;28;20058;-57
2022/04/24 06:21:53;;;;;;;43.28;26.30;;;11.10;99.90;;;;;;5092754;28;20098;-57
2022/04/24 06:24:19;;;;;;;43.13;24.08;;;11.00;99.90;;;;;;5095722;28;20056;-56
2022/04/24 06:26:45;;;;;;;42.08;24.73;;;11.10;99.90;;;;;;5095459;28;20453;-56
2022/04/24 06:29:12;;;;;;;58.17;37.90;;;11.20;99.90;;;;;;5095694;28;20032;-57
2022/04/24 06:31:39;;;;;;;53.90;33.45;;;11.30;99.90;;;;;;5095451;28;20107;-57
2022/04/24 06:34:05;;;;;;;56.15;32.55;;;11.30;99.90;;;;;;5095415;28;20454;-57
2022/04/24 06:36:31;;;;;;;52.83;29.30;;;11.40;99.90;;;;;;5095291;28;20053;-57
2022/04/24 06:38:57;;;;;;;51.63;28.45;;;11.50;99.90;;;;;;5095442;28;20442;-57
2022/04/24 06:41:23;;;;;;;47.08;25.27;;;11.60;99.90;;;;;;5095428;28;20115;-57
2022/04/24 06:43:49;;;;;;;40.28;23.80;;;11.60;99.90;;;;;;5095335;28;20500;-57
2022/04/24 06:46:15;;;;;;;39.40;22.58;;;11.70;99.90;;;;;;5095034;28;20032;-56
2022/04/24 06:48:41;;;;;;;42.13;21.17;;;11.80;99.90;;;;;;5095103;28;20474;-56
2022/04/24 06:51:07;;;;;;;42.50;21.55;;;12.00;99.90;;;;;;5095099;28;20454;-56
2022/04/24 06:53:35;;;;;;;38.60;20.77;;;12.10;99.90;;;;;;5095249;28;20027;-56
2022/04/24 06:56:01;;;;;;;42.90;20.65;;;12.20;99.90;;;;;;5095114;28;20035;-56
2022/04/24 06:58:27;;;;;;;40.90;19.70;;;12.30;99.90;;;;;;5094991;28;20036;-56
2022/04/24 07:00:53;;;;;;;33.65;17.27;;;12.40;99.90;;;;;;5094923;28;20034;-56
2022/04/24 07:03:23;;;;;;;41.92;22.45;;;12.50;99.90;;;;;;5074935;28;20040;-56
2022/04/24 07:05:53;;;;;;;43.00;23.63;;;12.60;99.90;;;;;;5074499;28;20032;-56
2022/04/24 07:08:21;;;;;;;43.53;24.87;;;12.70;99.90;;;;;;5074481;28;20032;-56
2022/04/24 07:10:47;;;;;;;45.17;26.05;;;12.80;99.90;;;;;;5089487;28;20032;-56
2022/04/24 07:13:13;;;;;;;57.28;30.20;;;13.00;99.90;;;;;;5094572;28;20016;-56
2022/04/24 07:15:39;;;;;;;64.15;34.30;;;13.10;99.90;;;;;;5094682;28;20473;-56
2022/04/24 07:18:06;;;;;;;56.63;32.38;;;13.20;99.90;;;;;;5094786;28;20070;-56
2022/04/24 07:20:32;;;;;;;61.78;34.08;;;13.40;99.90;;;;;;5094470;28;20044;-56
2022/04/24 07:23:05;;;;;;;59.63;30.58;;;13.50;99.90;;;;;;5094675;28;20043;-56
2022/04/24 07:25:40;;;;;;;53.38;28.60;;;13.60;99.90;;;;;;5094702;28;20188;-57
2022/04/24 07:28:07;;;;;;;43.05;25.15;;;13.70;99.90;;;;;;5094545;28;20086;-56
2022/04/24 07:30:33;;;;;;;76.10;34.47;;;13.90;99.90;;;;;;5094672;28;20520;-57
2022/04/24 07:32:59;;;;;;;48.83;26.83;;;14.10;99.90;;;;;;5094634;28;20028;-56
2022/04/24 07:35:28;;;;;;;60.78;28.70;;;14.20;99.90;;;;;;5094515;28;20020;-56
2022/04/24 07:37:55;;;;;;;65.03;32.88;;;14.40;99.90;;;;;;5094793;28;20028;-56
2022/04/24 07:40:22;;;;;;;54.53;30.00;;;14.60;99.90;;;;;;5094457;28;20573;-57
2022/04/24 07:42:51;;;;;;;52.00;27.35;;;14.80;99.90;;;;;;5094487;28;20042;-57
2022/04/24 07:45:34;;;;;;;45.50;24.60;;;15.00;99.90;;;;;;5094612;28;20488;-56
2022/04/24 07:48:02;;;;;;;38.45;20.63;;;15.20;99.90;;;;;;5094258;28;20486;-56
2022/04/24 07:50:30;;;;;;;42.83;22.08;;;15.40;99.90;;;;;;5094663;28;20031;-56
2022/04/24 07:52:57;;;;;;;48.63;25.40;;;15.50;99.90;;;;;;5094601;28;20028;-56
2022/04/24 07:55:24;;;;;;;56.42;26.38;;;15.70;99.90;;;;;;5094373;28;20114;-56
2022/04/24 07:57:54;;;;;;;48.40;25.52;;;15.90;99.90;;;;;;5094423;28;20043;-56
2022/04/24 08:00:25;;;;;;;47.17;25.52;;;16.00;99.90;;;;;;5094312;28;20028;-56
2022/04/24 08:03:02;;;;;;;50.95;26.42;;;16.20;99.90;;;;;;5078200;28;20108;-57
2022/04/24 08:05:29;;;;;;;46.95;24.58;;;16.30;99.90;;;;;;5074048;28;20557;-56
2022/04/24 08:07:57;;;;;;;47.83;23.98;;;16.40;99.90;;;;;;5073907;28;20063;-56
2022/04/24 08:10:25;;;;;;;42.63;23.00;;;16.50;99.90;;;;;;5090622;28;20039;-57
2022/04/24 08:12:52;;;;;;;42.60;20.08;;;16.70;99.90;;;;;;5094204;28;20078;-57
2022/04/24 08:15:18;;;;;;;38.25;19.17;;;16.80;99.90;;;;;;5094218;28;20484;-56
2022/04/24 08:17:45;;;;;;;35.25;16.70;;;17.00;99.90;;;;;;5094046;28;20024;-56
2022/04/24 08:20:13;;;;;;;33.15;14.60;;;17.20;99.90;;;;;;5090824;28;20040;-57
2022/04/24 08:22:47;;;;;;;40.95;14.10;;;17.30;99.90;;;;;;5076795;28;20029;-57
2022/04/24 08:25:18;;;;;;;24.88;13.38;;;17.40;99.30;;;;;;5077824;28;20067;-57
2022/04/24 08:27:45;;;;;;;23.65;13.75;;;17.50;99.50;;;;;;5077623;28;20356;-57
2022/04/24 08:30:12;;;;;;;23.60;14.02;;;17.70;99.60;;;;;;5077634;28;20284;-57
2022/04/24 08:32:40;;;;;;;31.17;15.90;;;17.90;99.90;;;;;;5077676;28;20038;-57
2022/04/24 08:35:08;;;;;;;49.03;19.10;;;18.10;99.90;;;;;;5077682;28;20043;-57
2022/04/24 08:37:34;;;;;;;28.65;14.18;;;18.20;99.50;;;;;;5077336;28;20111;-57
2022/04/24 08:40:01;;;;;;;25.95;13.07;;;18.30;99.20;;;;;;5077409;28;20181;-57
2022/04/24 08:42:27;;;;;;;27.73;12.70;;;18.50;96.20;;;;;;5077428;28;20037;-57
2022/04/24 08:44:56;;;;;;;28.25;11.98;;;18.50;93.50;;;;;;5077207;28;20391;-57
2022/04/24 08:47:24;;;;;;;27.42;11.32;;;18.70;94.30;;;;;;5077236;28;20036;-57
2022/04/24 08:49:55;;;;;;;27.10;13.45;;;18.80;94.00;;;;;;5077279;28;20352;-58
2022/04/24 08:52:22;;;;;;;27.60;14.23;;;18.90;92.80;;;;;;5077118;28;20029;-57
2022/04/24 08:54:50;;;;;;;33.75;14.90;;;19.00;93.80;;;;;;5077349;28;20020;-57
2022/04/24 08:57:17;;;;;;;39.40;14.57;;;19.20;93.80;;;;;;5077053;28;20497;-57
2022/04/24 08:59:43;;;;;;;35.88;16.17;;;19.40;95.00;;;;;;5076789;28;20478;-57
2022/04/24 09:02:10;;;;;;;42.83;15.90;;;19.60;96.90;;;;;;5066834;28;20068;-57
2022/04/24 09:04:37;;;;;;;27.02;15.32;;;19.70;92.90;;;;;;5056934;28;20125;-57
2022/04/24 09:07:06;;;;;;;31.48;12.98;;;19.90;95.70;;;;;;5056601;28;20037;-57
2022/04/24 09:09:41;;;;;;;26.67;12.32;;;20.00;92.20;;;;;;5056794;28;20111;-57
2022/04/24 09:12:15;;;;;;;22.95;10.38;;;20.10;90.90;;;;;;5076801;28;20038;-57
2022/04/24 09:14:47;;;;;;;27.13;11.55;;;20.20;81.50;;;;;;5076789;28;20144;-57
2022/04/24 09:17:21;;;;;;;20.85;9.55;;;20.40;74.20;;;;;;5076680;28;20086;-57
2022/04/24 09:19:48;;;;;;;29.00;9.73;;;20.50;65.50;;;;;;5076792;28;20047;-57
2022/04/24 09:22:14;;;;;;;18.85;8.85;;;20.70;82.10;;;;;;5096560;28;20051;-57
2022/04/24 09:24:41;;;;;;;25.90;10.55;;;20.80;65.90;;;;;;5096772;28;20035;-57
2022/04/24 09:27:08;;;;;;;26.05;9.35;;;20.90;67.60;;;;;;5096705;28;20710;-57
2022/04/24 09:29:34;;;;;;;29.17;9.27;;;21.10;67.70;;;;;;5096657;28;20032;-57
2022/04/24 09:32:00;;;;;;;25.63;9.98;;;21.20;64.40;;;;;;5096658;28;20118;-57
2022/04/24 09:34:33;;;;;;;22.55;8.73;;;21.40;73.40;;;;;;5095775;28;20481;-57
2022/04/24 09:37:02;;;;;;;14.20;6.35;;;21.50;66.00;;;;;;5096704;28;20046;-57
2022/04/24 09:39:29;;;;;;;18.05;7.25;;;21.50;62.80;;;;;;5096740;28;20160;-57
2022/04/24 09:42:06;;;;;;;15.10;6.97;;;21.60;66.90;;;;;;5096419;28;20058;-57
2022/04/24 09:44:51;;;;;;;16.80;7.20;;;22.00;63.20;;;;;;5096399;28;20097;-57
2022/04/24 09:47:22;;;;;;;26.75;7.10;;;22.40;64.20;;;;;;5096414;28;20055;-57
2022/04/24 09:49:50;;;;;;;26.23;7.35;;;22.70;59.50;;;;;;5096175;28;20085;-57
2022/04/24 09:52:22;;;;;;;20.33;5.55;;;22.80;58.30;;;;;;5096352;28;20028;-57
2022/04/24 09:54:50;;;;;;;13.88;5.60;;;22.80;54.70;;;;;;5096293;28;20035;-58
2022/04/24 09:57:18;;;;;;;11.73;5.13;;;22.70;53.50;;;;;;5096232;28;20108;-57
2022/04/24 09:59:46;;;;;;;8.43;3.88;;;22.60;56.10;;;;;;5096114;28;20036;-57
2022/04/24 10:02:17;;;;;;;14.18;4.90;;;23.00;56.20;;;;;;5085292;28;20040;-57
2022/04/24 10:04:45;;;;;;;8.48;4.55;;;23.20;55.10;;;;;;5075607;28;20037;-57
2022/04/24 10:07:15;;;;;;;13.98;5.20;;;23.60;56.50;;;;;;5075688;28;20029;-57
2022/04/24 10:09:43;;;;;;;11.52;5.28;;;23.70;52.00;;;;;;5086291;28;20481;-58
2022/04/24 10:12:20;;;;;;;13.38;5.00;;;24.20;58.90;;;;;;5095682;28;20021;-58
2022/04/24 10:14:54;;;;;;;12.63;4.75;;;24.60;54.40;;;;;;5077589;28;20032;-57
2022/04/24 10:17:35;;;;;;;7.80;4.35;;;24.80;50.30;;;;;;5095801;28;20028;-58
2022/04/24 10:20:50;;;;;;;12.05;4.22;;;24.80;48.10;;;;;;5095498;28;20032;-58
2022/04/24 10:23:32;;;;;;;13.27;4.25;;;24.50;47.80;;;;;;5077823;28;20048;-57
2022/04/24 10:25:58;;;;;;;18.05;4.53;;;24.10;47.20;;;;;;5077600;28;20082;-57
2022/04/24 10:28:38;;;;;;;9.00;3.83;;;23.80;47.50;;;;;;5095760;28;20052;-57
2022/04/24 10:31:05;;;;;;;15.40;4.70;;;23.80;49.60;;;;;;5095493;28;20020;-57
2022/04/24 10:33:33;;;;;;;11.18;4.65;;;23.60;49.10;;;;;;5095393;28;20544;-57
2022/04/24 10:36:20;;;;;;;21.85;4.40;;;23.30;49.10;;;;;;5095500;28;20035;-57
2022/04/24 10:38:50;;;;;;;10.10;1.90;;;22.80;47.50;;;;;;5095159;28;20028;-57
2022/04/24 10:41:19;;;;;;;14.18;2.13;;;22.90;47.30;;;;;;5095443;28;20028;-57
2022/04/24 10:43:46;;;;;;;8.43;1.70;;;22.90;46.10;;;;;;5095140;28;20177;-57
2022/04/24 10:46:33;;;;;;;4.70;1.10;;;23.20;48.10;;;;;;5095136;28;20032;-57
2022/04/24 10:49:12;;;;;;;8.25;1.80;;;23.50;45.90;;;;;;5095090;28;20024;-57
2022/04/24 10:51:42;;;;;;;11.80;2.72;;;23.60;50.70;;;;;;5095087;28;20112;-57
2022/04/24 10:54:13;;;;;;;13.00;2.50;;;23.80;52.80;;;;;;5094992;28;20034;-58
2022/04/24 10:56:49;;;;;;;21.25;4.00;;;23.50;53.50;;;;;;5095082;28;20500;-57
2022/04/24 10:59:18;;;;;;;9.15;1.98;;;23.40;54.20;;;;;;5095054;28;20051;-58
2022/04/24 11:01:53;;;;;;;12.38;3.00;;;23.10;53.40;;;;;;5088195;28;20025;-57
2022/04/24 11:04:20;;;;;;;14.55;2.50;;;23.10;54.70;;;;;;5074785;28;20092;-57
2022/04/24 11:06:56;;;;;;;12.52;3.40;;;22.60;54.60;;;;;;5074444;28;20378;-57
2022/04/24 11:09:23;;;;;;;16.23;4.03;;;22.40;56.60;;;;;;5078756;28;20084;-58
2022/04/24 11:11:59;;;;;;;13.70;3.35;;;22.30;60.10;;;;;;5094752;28;20028;-58
2022/04/24 11:14:28;;;;;;;10.52;3.05;;;22.40;59.00;;;;;;5094607;28;20020;-57
2022/04/24 11:16:57;;;;;;;14.07;4.20;;;22.20;58.30;;;;;;5094740;28;20056;-57
2022/04/24 11:19:26;;;;;;;14.30;3.05;;;22.10;58.90;;;;;;5094704;28;20028;-57
2022/04/24 11:22:12;;;;;;;11.38;3.53;;;21.70;60.50;;;;;;5077255;28;20479;-57
2022/04/24 11:24:39;;;;;;;11.38;3.05;;;21.60;60.30;;;;;;5074533;28;20059;-57
2022/04/24 11:27:13;;;;;;;6.32;1.73;;;21.10;62.70;;;;;;5074264;28;20385;-57
2022/04/24 11:29:39;;;;;;;7.18;2.08;;;21.00;66.40;;;;;;5074145;28;20035;-57
2022/04/24 11:32:09;;;;;;;9.73;2.20;;;20.90;66.90;;;;;;5074443;28;20458;-57
2022/04/24 11:34:37;;;;;;;9.52;2.40;;;20.90;73.90;;;;;;5074259;28;20425;-57
2022/04/24 11:37:04;;;;;;;8.30;2.40;;;20.90;74.90;;;;;;5074130;28;20120;-57
2022/04/24 11:39:31;;;;;;;12.10;2.65;;;21.00;71.20;;;;;;5074096;28;20055;-58
2022/04/24 11:41:58;;;;;;;12.80;3.75;;;21.20;65.00;;;;;;5074059;28;20075;-58
2022/04/24 11:50:15;;;;;;;5.28;1.50;;;22.20;62.70;;;;;;5074045;28;20041;-57
2022/04/24 11:52:41;;;;;;;8.00;1.77;;;22.20;55.70;;;;;;5074380;28;20104;-58
2022/04/24 11:55:13;;;;;;;5.90;1.63;;;22.20;57.00;;;;;;5074182;28;20048;-58
2022/04/24 11:57:39;;;;;;;5.43;2.45;;;22.30;55.50;;;;;;5077103;28;20028;-58
2022/04/24 12:00:09;;;;;;;5.80;1.42;;;22.70;55.10;;;;;;5077991;28;20040;-58
2022/04/24 12:02:35;;;;;;;2.97;1.10;;;23.00;54.60;;;;;;5064497;28;20426;-58
2022/04/24 12:05:08;;;;;;;4.65;1.50;;;23.20;50.10;;;;;;5057821;28;20062;-58
2022/04/24 12:07:36;;;;;;;5.00;0.75;;;23.10;49.00;;;;;;5057874;28;20434;-58
2022/04/24 12:10:09;;;;;;;3.22;0.88;;;23.40;46.80;;;;;;5057842;28;20477;-58
2022/04/24 12:12:49;;;;;;;2.63;1.00;;;23.40;46.50;;;;;;5057742;28;20021;-58
2022/04/24 12:15:17;;;;;;;8.70;2.38;;;23.60;47.50;;;;;;5077756;28;20036;-58
2022/04/24 12:17:57;;;;;;;13.18;3.20;;;23.40;50.20;;;;;;5077707;28;20043;-58
2022/04/24 12:20:41;;;;;;;7.07;1.33;;;23.70;50.60;;;;;;5082625;28;20039;-58
2022/04/24 12:23:13;;;;;;;16.85;4.10;;;23.90;48.60;;;;;;5098037;28;20024;-58
2022/04/24 12:25:51;;;;;;;11.00;2.70;;;23.80;48.30;;;;;;5097799;28;20409;-58
2022/04/24 12:28:31;;;;;;;30.15;6.45;;;23.60;48.60;;;;;;5097880;28;20211;-58
2022/04/24 12:30:58;;;;;;;20.65;3.38;;;23.80;50.40;;;;;;5098008;28;20028;-58
2022/04/24 12:33:24;;;;;;;8.10;1.80;;;23.80;47.40;;;;;;5097662;28;20031;-58
2022/04/24 12:35:51;;;;;;;16.95;3.03;;;24.30;48.10;;;;;;5097725;28;20032;-58
2022/04/24 12:38:19;;;;;;;4.35;1.63;;;24.20;45.50;;;;;;5097601;28;20428;-58
2022/04/24 12:40:59;;;;;;;13.80;3.00;;;23.90;45.80;;;;;;5097603;28;20115;-58
2022/04/24 12:43:27;;;;;;;35.03;8.27;;;24.20;46.90;;;;;;5097683;28;20032;-58
2022/04/24 12:45:55;;;;;;;7.40;1.50;;;24.40;45.80;;;;;;5097531;28;20027;-58